Time;durP1;ratioP1;P1;durP2;ratioP2;P2;SDS_P1;SDS_P2;PMS_P1;PMS_P2;Temp;Humidity;BMP_temperature;BMP_pressure;BME280_temperature;BME280_humidity;BME280_pressure;Samples;Min_cycle;Max_cycle;Signal;HPM_P1;HPM_P2
2023/04/21 00:01:17;;;;;;;12.82;8.48;;;12.70;92.60;;;;;;5071486;28;20231;-70
2023/04/21 00:04:08;;;;;;;14.60;7.82;;;12.70;92.60;;;;;;5073371;28;20231;-71
2023/04/21 00:07:00;;;;;;;12.02;7.88;;;12.70;92.70;;;;;;5068064;28;20224;-70
2023/04/21 00:09:49;;;;;;;12.60;7.63;;;12.70;92.80;;;;;;5079104;28;20223;-69
2023/04/21 00:12:41;;;;;;;12.80;8.60;;;12.60;92.90;;;;;;5070123;28;20242;-68
2023/04/21 00:15:31;;;;;;;11.52;8.05;;;12.60;92.90;;;;;;5068283;28;20212;-69
2023/04/21 00:18:19;;;;;;;10.85;7.97;;;12.70;92.80;;;;;;5071190;28;20228;-68
2023/04/21 00:21:10;;;;;;;10.38;7.85;;;12.70;92.80;;;;;;5070065;28;20231;-68
2023/04/21 00:23:58;;;;;;;18.00;8.00;;;12.60;93.00;;;;;;5096519;28;20228;-68
2023/04/21 00:26:47;;;;;;;14.60;8.30;;;12.50;93.10;;;;;;5076673;28;20250;-69
2023/04/21 00:29:37;;;;;;;17.73;7.93;;;12.50;93.20;;;;;;5096072;27;20266;-67
2023/04/21 00:32:26;;;;;;;12.57;8.05;;;12.60;93.50;;;;;;5072615;28;20235;-66
2023/04/21 00:35:15;;;;;;;11.00;8.02;;;12.40;93.40;;;;;;5076606;28;20216;-68
2023/04/21 00:38:05;;;;;;;12.82;8.30;;;12.50;93.50;;;;;;5071241;28;20908;-67
2023/04/21 00:40:54;;;;;;;13.55;7.80;;;12.50;93.60;;;;;;5063163;28;20686;-67
2023/04/21 00:44:01;;;;;;;14.73;8.80;;;12.40;93.60;;;;;;5068003;28;20247;-68
2023/04/21 00:46:51;;;;;;;13.98;8.15;;;12.20;93.80;;;;;;5069756;28;20563;-68
2023/04/21 00:49:45;;;;;;;14.23;8.52;;;12.20;94.00;;;;;;5071476;28;20265;-67
2023/04/21 00:52:34;;;;;;;12.02;8.05;;;12.30;94.00;;;;;;5061074;28;20329;-68
2023/04/21 00:55:25;;;;;;;13.98;8.32;;;12.20;94.10;;;;;;5071469;28;20299;-69
2023/04/21 00:58:13;;;;;;;11.15;7.65;;;12.20;94.00;;;;;;5075186;28;20216;-68
2023/04/21 01:01:04;;;;;;;10.85;8.18;;;12.10;94.30;;;;;;5066371;28;20740;-68
2023/04/21 01:03:53;;;;;;;10.77;7.82;;;12.10;94.40;;;;;;5079370;28;20232;-69
2023/04/21 01:06:43;;;;;;;11.52;8.32;;;12.20;94.30;;;;;;5075491;28;20228;-69
2023/04/21 01:09:32;;;;;;;13.20;7.85;;;12.20;94.20;;;;;;5077942;28;20237;-70
2023/04/21 01:12:25;;;;;;;9.23;8.05;;;12.10;94.30;;;;;;5078408;28;20775;-70
2023/04/21 01:15:15;;;;;;;10.07;8.00;;;12.10;94.40;;;;;;5078898;28;20231;-71
2023/04/21 01:18:04;;;;;;;12.07;7.65;;;12.00;94.40;;;;;;5070316;28;20721;-68
2023/04/21 01:20:53;;;;;;;11.30;7.75;;;12.00;94.40;;;;;;5072918;28;20235;-67
2023/04/21 01:23:44;;;;;;;10.20;7.40;;;11.90;94.60;;;;;;5076242;27;20694;-69
2023/04/21 01:26:33;;;;;;;11.80;7.80;;;11.80;94.80;;;;;;5078031;28;20227;-71
2023/04/21 01:29:22;;;;;;;16.73;8.35;;;11.90;94.90;;;;;;5078220;28;20228;-69
2023/04/21 01:32:13;;;;;;;12.60;7.95;;;12.00;94.90;;;;;;5077857;28;20702;-69
2023/04/21 01:35:02;;;;;;;10.50;7.85;;;12.00;94.70;;;;;;5077344;28;20540;-70
2023/04/21 01:37:51;;;;;;;12.65;7.75;;;11.80;94.90;;;;;;5074058;28;20220;-70
2023/04/21 01:40:42;;;;;;;14.32;8.05;;;11.80;94.90;;;;;;5083394;28;20227;-69
2023/04/21 01:43:31;;;;;;;11.43;7.75;;;11.80;95.10;;;;;;5076806;28;20560;-70
2023/04/21 01:46:20;;;;;;;12.20;8.18;;;11.70;95.60;;;;;;5073926;28;20212;-69
2023/04/21 01:49:09;;;;;;;14.25;7.72;;;11.70;95.30;;;;;;5074575;28;20228;-70
2023/04/21 01:51:58;;;;;;;10.35;7.80;;;11.80;95.30;;;;;;5080075;28;20223;-70
2023/04/21 01:54:47;;;;;;;10.82;7.32;;;11.60;95.40;;;;;;5080942;28;20228;-70
2023/04/21 01:57:38;;;;;;;11.43;7.70;;;11.50;95.40;;;;;;5070836;28;20228;-70
2023/04/21 02:00:27;;;;;;;13.65;8.38;;;11.50;95.80;;;;;;5071489;28;20300;-72
2023/04/21 02:03:16;;;;;;;10.43;7.80;;;11.50;95.80;;;;;;5081651;28;20745;-72
2023/04/21 02:06:07;;;;;;;15.63;8.73;;;11.40;95.90;;;;;;5076975;28;20228;-72
2023/04/21 02:08:55;;;;;;;15.32;8.23;;;11.40;95.90;;;;;;5067578;28;20235;-73
2023/04/21 02:11:44;;;;;;;10.00;8.20;;;11.40;96.20;;;;;;5076545;28;20234;-69
2023/04/21 02:14:34;;;;;;;12.15;8.20;;;11.30;96.20;;;;;;5080033;28;20219;-69
2023/04/21 02:17:26;;;;;;;11.65;8.20;;;11.30;96.50;;;;;;5074570;28;20708;-70
2023/04/21 02:20:17;;;;;;;10.43;7.97;;;11.40;96.30;;;;;;5069690;28;20307;-70
2023/04/21 02:23:07;;;;;;;12.35;7.63;;;11.20;96.40;;;;;;5068848;28;20268;-72
2023/04/21 02:25:56;;;;;;;11.45;7.45;;;11.30;96.40;;;;;;5070867;28;20223;-71
2023/04/21 02:28:45;;;;;;;11.27;7.53;;;11.20;96.40;;;;;;5069671;28;20703;-70
2023/04/21 02:31:37;;;;;;;10.90;7.45;;;11.20;96.50;;;;;;5081077;27;20339;-71
2023/04/21 02:34:46;;;;;;;14.18;8.27;;;11.10;96.70;;;;;;5074692;28;20952;-72
2023/04/21 02:37:35;;;;;;;11.63;7.85;;;11.10;96.70;;;;;;5074937;28;20227;-72
2023/04/21 02:40:28;;;;;;;10.75;7.68;;;11.10;96.80;;;;;;5067693;28;20267;-71
2023/04/21 02:43:17;;;;;;;11.10;7.85;;;11.00;96.90;;;;;;5076033;28;20702;-70
2023/04/21 02:46:09;;;;;;;13.18;8.10;;;10.90;97.00;;;;;;5073295;28;20227;-72
2023/04/21 02:48:59;;;;;;;9.35;7.10;;;10.90;96.90;;;;;;5086337;28;20555;-71
2023/04/21 02:51:48;;;;;;;12.77;7.63;;;11.00;97.00;;;;;;5071720;28;20284;-69
2023/04/21 02:54:37;;;;;;;9.13;7.70;;;11.00;97.00;;;;;;5066701;28;20232;-68
2023/04/21 02:57:26;;;;;;;16.00;7.88;;;10.90;97.30;;;;;;5072785;28;20690;-70
2023/04/21 03:00:15;;;;;;;14.65;8.25;;;10.90;97.20;;;;;;5069601;28;20669;-69
2023/04/21 03:03:04;;;;;;;12.60;7.70;;;10.90;97.40;;;;;;5072278;28;20662;-70
2023/04/21 03:05:58;;;;;;;9.75;7.63;;;10.90;97.30;;;;;;5069945;28;20231;-69
2023/04/21 03:08:47;;;;;;;12.45;7.47;;;10.90;97.60;;;;;;5069790;28;20230;-69
2023/04/21 03:11:36;;;;;;;13.90;7.25;;;10.90;97.80;;;;;;5095434;27;20227;-67
2023/04/21 03:14:25;;;;;;;11.70;7.85;;;10.90;97.50;;;;;;5077026;28;20216;-69
2023/04/21 03:17:13;;;;;;;10.25;7.50;;;10.90;97.30;;;;;;5077393;28;20969;-69
2023/04/21 03:20:06;;;;;;;13.70;7.70;;;10.90;97.60;;;;;;5064027;28;20228;-68
2023/04/21 03:22:57;;;;;;;13.50;6.90;;;10.80;97.40;;;;;;5080761;28;20256;-68
2023/04/21 03:25:45;;;;;;;11.45;6.68;;;10.80;97.30;;;;;;5072156;28;20235;-68
2023/04/21 03:28:34;;;;;;;11.45;7.07;;;10.80;97.30;;;;;;5076104;28;20215;-69
2023/04/21 03:31:23;;;;;;;12.50;7.35;;;10.70;97.20;;;;;;5063924;28;20220;-69
2023/04/21 03:34:12;;;;;;;10.35;7.97;;;10.70;97.60;;;;;;5070887;28;20216;-69
2023/04/21 03:37:01;;;;;;;12.27;7.13;;;10.70;97.60;;;;;;5073415;28;20220;-69
2023/04/21 03:39:53;;;;;;;11.52;7.35;;;10.70;97.70;;;;;;5070964;28;20231;-70
2023/04/21 03:42:42;;;;;;;11.48;7.38;;;10.60;97.80;;;;;;5076123;28;20240;-70
2023/04/21 03:45:31;;;;;;;11.23;7.53;;;10.60;97.80;;;;;;5073620;28;20222;-70
2023/04/21 03:48:20;;;;;;;10.70;7.50;;;10.70;97.80;;;;;;5070746;28;20250;-68
2023/04/21 03:51:08;;;;;;;9.82;6.63;;;10.60;97.60;;;;;;5071928;28;20730;-69
2023/04/21 03:53:57;;;;;;;13.18;7.82;;;10.60;97.40;;;;;;5064312;28;20800;-69
2023/04/21 03:56:47;;;;;;;13.07;7.18;;;10.60;97.50;;;;;;5067355;28;20277;-69
2023/04/21 03:59:36;;;;;;;10.63;7.18;;;10.60;97.50;;;;;;5074063;28;20902;-69
2023/04/21 04:02:25;;;;;;;12.98;7.68;;;10.50;97.80;;;;;;5075791;28;20224;-69
2023/04/21 04:05:13;;;;;;;11.82;7.15;;;10.50;97.90;;;;;;5079417;28;20239;-69
2023/04/21 04:08:03;;;;;;;10.57;7.15;;;10.40;98.40;;;;;;5081647;28;20330;-72
2023/04/21 04:10:51;;;;;;;9.10;7.07;;;10.30;98.30;;;;;;5076337;28;20235;-69
2023/04/21 04:13:44;;;;;;;12.02;7.35;;;10.40;98.40;;;;;;5078575;28;20238;-70
2023/04/21 04:16:34;;;;;;;14.40;7.65;;;10.50;98.30;;;;;;5080109;28;20227;-71
2023/04/21 04:19:23;;;;;;;9.93;7.20;;;10.50;98.10;;;;;;5075369;28;20711;-70
2023/04/21 04:22:11;;;;;;;9.02;7.40;;;10.50;98.20;;;;;;5078323;28;20227;-69
2023/04/21 04:25:01;;;;;;;9.27;6.78;;;10.60;97.90;;;;;;5078595;28;20223;-69
2023/04/21 04:27:49;;;;;;;8.63;6.78;;;10.70;97.90;;;;;;5072161;28;20234;-68
2023/04/21 04:30:40;;;;;;;11.82;7.55;;;10.70;97.70;;;;;;5078040;28;20312;-70
2023/04/21 04:33:29;;;;;;;12.85;7.03;;;10.80;97.70;;;;;;5075971;28;20668;-69
2023/04/21 04:36:18;;;;;;;12.93;7.20;;;10.70;97.50;;;;;;5075823;28;20220;-70
2023/04/21 04:39:09;;;;;;;10.18;6.75;;;10.60;97.60;;;;;;5098275;27;20285;-70
2023/04/21 04:41:58;;;;;;;12.20;7.32;;;10.60;97.60;;;;;;5081934;28;20220;-69
2023/04/21 04:44:47;;;;;;;10.35;6.90;;;10.70;97.60;;;;;;5066290;28;20238;-69
2023/04/21 04:47:37;;;;;;;9.95;7.05;;;10.70;97.50;;;;;;5083295;27;20309;-70
2023/04/21 04:50:26;;;;;;;8.77;6.50;;;11.00;98.50;;;;;;5072239;28;20396;-68
2023/04/21 04:53:14;;;;;;;11.75;7.35;;;10.70;97.80;;;;;;5072148;28;20223;-68
2023/04/21 04:56:03;;;;;;;10.52;6.75;;;10.80;97.10;;;;;;5066412;28;20771;-69
2023/04/21 04:58:52;;;;;;;13.18;6.90;;;10.70;97.40;;;;;;5071447;28;20873;-69
2023/04/21 05:01:42;;;;;;;10.88;7.07;;;10.70;97.40;;;;;;5073159;28;20222;-71
2023/04/21 05:04:33;;;;;;;13.15;6.95;;;10.60;97.10;;;;;;5075227;28;20643;-70
2023/04/21 05:07:22;;;;;;;12.90;6.47;;;10.80;97.00;;;;;;5072146;28;20215;-69
2023/04/21 05:10:11;;;;;;;11.88;6.47;;;10.80;97.00;;;;;;5066775;28;20219;-70
2023/04/21 05:13:00;;;;;;;14.05;7.20;;;10.60;96.80;;;;;;5070211;28;20220;-70
2023/04/21 05:15:48;;;;;;;11.23;7.07;;;11.00;97.40;;;;;;5072011;28;20232;-69
2023/04/21 05:18:37;;;;;;;8.23;6.38;;;10.90;96.70;;;;;;5065749;28;20266;-70
2023/04/21 05:21:28;;;;;;;10.07;6.30;;;11.30;96.60;;;;;;5072133;28;20227;-69
2023/04/21 05:24:22;;;;;;;12.00;7.20;;;11.30;96.10;;;;;;5078350;28;20246;-68
2023/04/21 05:27:10;;;;;;;13.05;6.90;;;11.60;96.20;;;;;;5077569;28;20307;-68
2023/04/21 05:29:59;;;;;;;10.85;6.90;;;11.70;95.60;;;;;;5068383;28;20274;-67
2023/04/21 05:32:48;;;;;;;19.13;7.00;;;12.30;94.90;;;;;;5071175;28;20208;-68
2023/04/21 05:35:37;;;;;;;10.07;7.05;;;13.60;93.60;;;;;;5073880;28;20224;-68
2023/04/21 05:38:27;;;;;;;11.50;6.03;;;14.60;92.20;;;;;;5078098;28;20737;-69
2023/04/21 05:41:16;;;;;;;12.63;6.45;;;14.30;90.90;;;;;;5066962;28;20721;-69
2023/04/21 05:44:05;;;;;;;10.60;6.60;;;14.80;90.60;;;;;;5081596;28;20854;-68
2023/04/21 05:46:54;;;;;;;12.27;6.57;;;14.50;90.50;;;;;;5071435;28;20438;-67
2023/04/21 05:49:48;;;;;;;10.45;6.32;;;13.50;91.20;;;;;;5076642;28;20345;-67
2023/04/21 05:52:38;;;;;;;14.18;6.13;;;13.10;92.10;;;;;;5067176;28;20372;-68
2023/04/21 05:55:28;;;;;;;14.00;6.55;;;12.90;92.30;;;;;;5072194;28;20833;-68
2023/04/21 05:58:17;;;;;;;11.68;6.50;;;12.80;92.70;;;;;;5076535;28;20216;-67
2023/04/21 06:01:06;;;;;;;14.50;6.53;;;12.60;92.60;;;;;;5075789;28;20231;-67
2023/04/21 06:03:55;;;;;;;11.88;7.07;;;12.60;92.90;;;;;;5082566;28;20247;-69
2023/04/21 06:06:44;;;;;;;11.60;6.20;;;12.40;93.00;;;;;;5074516;28;20227;-68
2023/04/21 06:09:33;;;;;;;17.15;6.15;;;12.70;92.70;;;;;;5072438;28;20234;-70
2023/04/21 06:12:23;;;;;;;16.13;6.30;;;12.90;92.40;;;;;;5074390;28;20219;-67
2023/04/21 06:15:12;;;;;;;12.98;6.30;;;13.00;92.20;;;;;;5072142;28;20220;-68
2023/04/21 06:18:03;;;;;;;15.30;6.10;;;12.80;92.30;;;;;;5076139;28;20244;-68
2023/04/21 06:20:53;;;;;;;15.48;6.20;;;12.90;92.20;;;;;;5073900;28;20215;-68
2023/04/21 06:23:42;;;;;;;12.38;6.20;;;13.10;91.80;;;;;;5074057;28;20741;-68
2023/04/21 06:26:31;;;;;;;17.17;6.20;;;13.00;92.00;;;;;;5069018;28;20240;-67
2023/04/21 06:29:21;;;;;;;16.20;6.45;;;13.30;91.90;;;;;;5077476;27;20713;-66
2023/04/21 06:32:11;;;;;;;11.13;6.20;;;13.50;91.80;;;;;;5071943;28;20364;-67
2023/04/21 06:35:00;;;;;;;14.40;5.88;;;13.90;91.70;;;;;;5071789;28;20305;-67
2023/04/21 06:37:49;;;;;;;13.68;6.07;;;15.10;90.10;;;;;;5073529;28;20254;-68
2023/04/21 06:40:38;;;;;;;14.80;5.45;;;14.80;89.50;;;;;;5072211;28;20239;-66
2023/04/21 06:43:27;;;;;;;10.50;5.55;;;14.80;90.10;;;;;;5066225;28;20271;-68
2023/04/21 06:46:17;;;;;;;12.93;6.18;;;15.20;89.60;;;;;;5075803;28;20232;-68
2023/04/21 06:49:06;;;;;;;15.07;5.90;;;15.30;88.40;;;;;;5077538;28;20268;-68
2023/04/21 06:51:55;;;;;;;18.15;5.70;;;15.90;87.70;;;;;;5078668;28;20224;-68
2023/04/21 06:54:44;;;;;;;11.02;5.57;;;16.10;85.30;;;;;;5066640;28;20307;-69
2023/04/21 06:57:33;;;;;;;10.80;5.70;;;16.40;85.40;;;;;;5074619;28;20244;-68
2023/04/21 07:00:22;;;;;;;11.80;4.85;;;16.80;82.60;;;;;;5065580;28;20240;-69
2023/04/21 07:03:12;;;;;;;7.25;4.95;;;17.70;82.10;;;;;;5071241;28;20215;-70
2023/04/21 07:06:02;;;;;;;13.85;5.30;;;17.40;80.40;;;;;;5066187;28;20254;-70
2023/04/21 07:08:50;;;;;;;12.75;4.80;;;17.20;79.30;;;;;;5094061;27;20235;-70
2023/04/21 07:11:39;;;;;;;11.52;4.88;;;17.50;78.50;;;;;;5084696;28;20254;-70
2023/04/21 07:14:28;;;;;;;11.20;5.20;;;18.00;78.80;;;;;;5069549;28;20668;-71
2023/04/21 07:17:17;;;;;;;9.18;4.80;;;18.60;77.80;;;;;;5077448;28;20336;-69
2023/04/21 07:20:09;;;;;;;9.32;4.47;;;18.50;76.70;;;;;;5069430;28;20215;-69
2023/04/21 07:22:58;;;;;;;7.63;4.80;;;18.40;77.30;;;;;;5078952;28;20235;-70
2023/04/21 07:25:47;;;;;;;10.88;4.75;;;19.00;76.50;;;;;;5068341;28;20600;-69
2023/04/21 07:28:35;;;;;;;9.57;4.32;;;18.80;73.20;;;;;;5074581;28;20804;-73
2023/04/21 07:31:24;;;;;;;7.78;4.53;;;18.60;72.60;;;;;;5076197;28;20219;-69
2023/04/21 07:34:14;;;;;;;11.60;4.47;;;19.00;72.80;;;;;;5073392;28;20230;-71
2023/04/21 07:37:04;;;;;;;11.10;4.72;;;18.90;71.50;;;;;;5075298;28;20234;-71
2023/04/21 07:39:53;;;;;;;8.75;4.38;;;18.80;72.00;;;;;;5072839;28;20319;-72
2023/04/21 07:42:42;;;;;;;9.25;4.70;;;18.90;71.80;;;;;;5068437;28;20761;-70
2023/04/21 07:45:31;;;;;;;7.38;4.90;;;19.30;71.60;;;;;;5084356;28;20231;-71
2023/04/21 07:48:19;;;;;;;10.55;4.35;;;19.40;70.90;;;;;;5069307;28;20572;-70
2023/04/21 07:51:08;;;;;;;5.93;4.13;;;19.70;70.10;;;;;;5072737;28;20230;-70
2023/04/21 07:54:01;;;;;;;9.95;4.20;;;19.60;70.60;;;;;;5070207;28;20231;-70
2023/04/21 07:56:50;;;;;;;11.52;4.30;;;19.70;69.70;;;;;;5072111;28;20664;-71
2023/04/21 07:59:39;;;;;;;8.50;4.45;;;20.20;70.40;;;;;;5075014;28;20608;-71
2023/04/21 08:02:28;;;;;;;7.00;3.70;;;20.60;67.40;;;;;;5074414;28;20316;-70
2023/04/21 08:05:17;;;;;;;9.38;4.50;;;20.70;68.60;;;;;;5075436;28;20223;-70
2023/04/21 08:08:06;;;;;;;9.63;4.22;;;20.40;66.80;;;;;;5063200;28;20223;-71
2023/04/21 08:10:56;;;;;;;9.48;4.25;;;21.10;66.50;;;;;;5074106;28;20234;-71
2023/04/21 08:13:45;;;;;;;11.10;4.43;;;21.40;64.60;;;;;;5072294;28;20224;-71
2023/04/21 08:16:34;;;;;;;8.73;4.05;;;21.90;64.40;;;;;;5076070;28;20234;-71
2023/04/21 08:19:23;;;;;;;7.40;4.00;;;22.40;62.20;;;;;;5071042;28;20733;-71
2023/04/21 08:22:13;;;;;;;5.85;3.33;;;21.80;62.00;;;;;;5093885;28;20216;-71
2023/04/21 08:25:02;;;;;;;6.95;3.80;;;20.90;60.90;;;;;;5071080;28;20220;-70
2023/04/21 08:27:52;;;;;;;8.15;3.40;;;21.40;59.90;;;;;;5070408;28;20342;-70
2023/04/21 08:30:42;;;;;;;4.47;2.90;;;21.10;59.00;;;;;;5066251;28;20355;-71
2023/04/21 08:33:30;;;;;;;4.15;3.10;;;20.90;57.80;;;;;;5064917;28;20368;-70
2023/04/21 08:36:20;;;;;;;6.85;3.40;;;20.90;58.10;;;;;;5078289;28;20827;-69
2023/04/21 08:39:17;;;;;;;5.28;3.20;;;21.20;57.40;;;;;;5078731;28;20262;-71
2023/04/21 08:42:07;;;;;;;7.28;3.83;;;21.90;58.70;;;;;;5070096;28;20219;-70
2023/04/21 08:44:57;;;;;;;6.65;3.88;;;22.40;56.90;;;;;;5071163;28;20235;-70
2023/04/21 08:47:48;;;;;;;7.68;4.03;;;22.00;56.30;;;;;;5077289;28;20220;-70
2023/04/21 08:50:38;;;;;;;4.95;3.55;;;22.10;56.10;;;;;;5070767;28;20590;-68
2023/04/21 08:53:28;;;;;;;9.93;3.38;;;22.30;56.40;;;;;;5084034;28;20240;-71
2023/04/21 08:56:17;;;;;;;5.60;3.40;;;21.40;55.50;;;;;;5070261;28;21077;-70
2023/04/21 08:59:06;;;;;;;4.40;3.15;;;21.10;56.00;;;;;;5077475;28;20257;-71
2023/04/21 09:02:09;;;;;;;6.88;3.17;;;20.90;56.30;;;;;;5080735;28;20228;-71
2023/04/21 09:04:58;;;;;;;5.68;3.47;;;21.40;56.40;;;;;;5076993;28;20555;-70
2023/04/21 09:07:48;;;;;;;8.07;3.38;;;21.20;56.40;;;;;;5069684;28;20391;-69
2023/04/21 09:10:43;;;;;;;6.57;3.30;;;21.50;56.60;;;;;;5073963;28;20324;-70
2023/04/21 09:13:36;;;;;;;7.55;3.40;;;22.50;55.60;;;;;;5069151;28;20476;-73
2023/04/21 09:16:29;;;;;;;6.80;3.05;;;23.30;55.30;;;;;;5071513;28;20228;-71
2023/04/21 09:19:22;;;;;;;5.13;3.40;;;22.10;53.80;;;;;;5080544;28;20223;-72
2023/04/21 09:22:15;;;;;;;4.55;3.40;;;22.40;54.00;;;;;;5077265;28;20242;-69
2023/04/21 09:25:04;;;;;;;3.22;2.80;;;22.10;54.80;;;;;;5071386;28;20254;-70
2023/04/21 09:27:54;;;;;;;6.63;3.00;;;22.30;53.40;;;;;;5074301;28;20219;-71
2023/04/21 09:30:43;;;;;;;11.07;3.08;;;22.00;52.60;;;;;;5071525;28;20230;-72
2023/04/21 09:33:34;;;;;;;5.55;3.40;;;22.70;52.40;;;;;;5098421;27;20818;-70
2023/04/21 09:36:38;;;;;;;5.53;3.10;;;24.60;51.60;;;;;;5068164;28;20730;-69
2023/04/21 09:39:29;;;;;;;5.15;2.90;;;24.60;49.40;;;;;;5097792;27;20215;-70
2023/04/21 09:42:34;;;;;;;6.40;3.08;;;23.60;49.40;;;;;;5073547;28;20252;-69
2023/04/21 09:45:29;;;;;;;9.15;3.17;;;23.90;50.60;;;;;;5074806;27;20727;-69
2023/04/21 09:48:32;;;;;;;4.78;3.13;;;23.70;49.50;;;;;;5076971;28;20435;-68
2023/04/21 09:51:22;;;;;;;3.30;3.00;;;24.60;49.20;;;;;;5071708;28;20219;-71
2023/04/21 09:54:33;;;;;;;4.00;3.40;;;26.50;49.10;;;;;;5065871;28;20227;-71
2023/04/21 09:57:27;;;;;;;8.18;3.13;;;27.00;47.30;;;;;;5071788;28;20231;-72
2023/04/21 10:00:17;;;;;;;5.85;3.45;;;26.70;46.00;;;;;;5074734;28;20224;-70
2023/04/21 10:03:10;;;;;;;3.60;3.25;;;24.90;46.10;;;;;;5069249;28;20220;-70
2023/04/21 10:06:00;;;;;;;3.63;3.10;;;24.30;46.60;;;;;;5100430;27;20223;-72
2023/04/21 10:08:50;;;;;;;4.80;3.58;;;24.70;46.20;;;;;;5066864;28;20232;-73
2023/04/21 10:11:41;;;;;;;4.47;3.20;;;25.60;46.50;;;;;;5071221;28;20303;-72
2023/04/21 10:14:30;;;;;;;4.88;3.03;;;25.60;45.90;;;;;;5074908;28;20226;-73
2023/04/21 10:17:24;;;;;;;3.95;3.05;;;24.50;46.40;;;;;;5072193;28;20586;-70
2023/04/21 10:20:16;;;;;;;5.65;3.50;;;24.70;45.80;;;;;;5077111;28;20220;-71
2023/04/21 10:23:05;;;;;;;5.53;3.25;;;24.20;45.60;;;;;;5068438;28;20235;-71
2023/04/21 10:25:54;;;;;;;6.20;2.97;;;23.60;46.20;;;;;;5073656;28;20381;-69
2023/04/21 10:28:46;;;;;;;3.78;3.00;;;24.50;45.90;;;;;;5073300;28;20230;-71
2023/04/21 10:31:37;;;;;;;4.97;3.15;;;25.50;45.50;;;;;;5071116;28;21025;-73
2023/04/21 10:34:34;;;;;;;5.50;3.40;;;26.70;44.10;;;;;;5068499;28;20341;-72
2023/04/21 10:37:22;;;;;;;5.63;3.60;;;27.90;43.70;;;;;;5076865;28;20216;-73
2023/04/21 10:40:35;;;;;;;5.53;3.60;;;28.10;43.50;;;;;;5083433;27;20564;-72
2023/04/21 10:43:44;;;;;;;6.53;3.70;;;27.80;42.90;;;;;;5074558;28;20869;-71
2023/04/21 10:46:39;;;;;;;5.75;3.95;;;27.20;42.30;;;;;;5068974;28;20230;-71
2023/04/21 10:49:30;;;;;;;7.47;3.67;;;26.90;44.20;;;;;;5071737;28;20561;-70
2023/04/21 10:52:20;;;;;;;5.90;3.08;;;28.20;42.50;;;;;;5076934;28;20227;-71
2023/04/21 10:55:11;;;;;;;4.40;3.60;;;28.40;39.40;;;;;;5071205;28;20261;-72
2023/04/21 10:58:03;;;;;;;7.88;3.38;;;29.70;39.70;;;;;;5075220;28;20219;-71
2023/04/21 11:00:57;;;;;;;7.05;3.13;;;28.10;40.00;;;;;;5066730;28;20239;-70
2023/04/21 11:03:47;;;;;;;8.60;3.47;;;29.10;40.00;;;;;;5069512;28;20226;-73
2023/04/21 11:06:36;;;;;;;4.38;3.30;;;28.40;39.10;;;;;;5066807;28;20227;-72
2023/04/21 11:09:28;;;;;;;6.75;3.30;;;28.20;39.40;;;;;;5067852;28;20306;-72
2023/04/21 11:12:18;;;;;;;4.82;3.38;;;29.80;40.00;;;;;;5075822;28;20352;-73
2023/04/21 11:15:09;;;;;;;5.93;3.22;;;29.00;38.90;;;;;;5069948;28;20355;-70
2023/04/21 11:18:00;;;;;;;3.80;3.40;;;27.50;39.10;;;;;;5099926;27;20301;-70
2023/04/21 11:20:49;;;;;;;5.90;3.08;;;28.00;39.40;;;;;;5069465;28;20223;-72
2023/04/21 11:23:41;;;;;;;3.85;3.45;;;29.70;39.20;;;;;;5070835;28;20222;-72
2023/04/21 11:26:31;;;;;;;5.25;3.47;;;31.80;38.10;;;;;;5069218;28;20220;-72
2023/04/21 11:29:21;;;;;;;5.35;3.35;;;30.20;37.80;;;;;;5070194;28;20745;-71
2023/04/21 11:32:12;;;;;;;7.50;3.30;;;28.90;39.00;;;;;;5073588;28;20213;-69
2023/04/21 11:35:07;;;;;;;5.05;3.15;;;30.10;37.10;;;;;;5076265;28;20219;-71
2023/04/21 11:37:56;;;;;;;4.32;3.30;;;30.40;38.00;;;;;;5073726;28;20303;-70
2023/04/21 11:40:48;;;;;;;3.35;3.05;;;30.50;37.20;;;;;;5069844;28;20222;-70
2023/04/21 11:43:37;;;;;;;5.90;3.13;;;31.20;37.20;;;;;;5078615;28;20219;-70
2023/04/21 11:46:27;;;;;;;5.45;3.47;;;32.50;35.60;;;;;;5078432;28;20596;-70
2023/04/21 11:49:17;;;;;;;5.45;3.28;;;35.00;34.80;;;;;;5071600;28;20223;-69
2023/04/21 11:52:07;;;;;;;6.10;3.22;;;33.90;34.20;;;;;;5072936;28;20223;-71
2023/04/21 11:54:58;;;;;;;4.60;3.03;;;34.80;34.20;;;;;;5069290;28;20227;-68
2023/04/21 11:57:50;;;;;;;4.70;2.80;;;34.60;33.10;;;;;;5061246;28;20216;-68
2023/04/21 12:00:39;;;;;;;7.63;3.22;;;34.00;32.30;;;;;;5065655;28;21182;-70
2023/04/21 12:03:28;;;;;;;5.45;3.08;;;33.30;32.40;;;;;;5069419;28;20354;-69
2023/04/21 12:06:21;;;;;;;5.78;3.53;;;33.00;33.20;;;;;;5060143;28;20224;-70
2023/04/21 12:09:17;;;;;;;6.43;3.00;;;31.80;34.50;;;;;;5076579;28;20237;-69
2023/04/21 12:12:07;;;;;;;4.00;3.50;;;30.20;35.10;;;;;;5066900;28;20229;-70
2023/04/21 12:14:55;;;;;;;4.82;3.50;;;29.30;35.90;;;;;;5071259;28;20306;-71
2023/04/21 12:17:45;;;;;;;6.55;3.50;;;24.80;38.70;;;;;;5075184;28;20237;-71
2023/04/21 12:20:34;;;;;;;5.70;3.63;;;23.00;41.20;;;;;;5070078;28;20242;-71
2023/04/21 12:23:23;;;;;;;9.48;3.90;;;22.40;42.60;;;;;;5075229;28;20232;-71
2023/04/21 12:26:14;;;;;;;6.57;3.70;;;22.50;43.10;;;;;;5083025;28;20219;-73
2023/04/21 12:29:02;;;;;;;5.60;3.28;;;22.30;43.40;;;;;;5107383;27;20698;-72
2023/04/21 12:31:51;;;;;;;11.35;3.67;;;22.40;43.90;;;;;;5082803;28;20965;-71
2023/04/21 12:34:42;;;;;;;5.32;3.13;;;22.20;43.90;;;;;;5082743;28;20219;-70
2023/04/21 12:37:31;;;;;;;4.18;3.70;;;21.70;45.20;;;;;;5076343;28;20222;-72
2023/04/21 12:40:20;;;;;;;7.38;3.20;;;21.00;44.90;;;;;;5078212;28;20310;-72
2023/04/21 12:43:10;;;;;;;7.30;3.55;;;21.10;45.60;;;;;;5075580;28;20220;-70
2023/04/21 12:46:00;;;;;;;6.47;3.33;;;20.90;45.80;;;;;;5084741;28;20243;-72
2023/04/21 12:48:51;;;;;;;4.50;2.97;;;20.40;46.00;;;;;;5109057;27;20223;-70
2023/04/21 12:51:39;;;;;;;5.07;3.28;;;20.60;46.60;;;;;;5077344;28;20234;-68
2023/04/21 12:54:28;;;;;;;6.15;3.03;;;20.60;47.00;;;;;;5069119;28;20258;-68
2023/04/21 12:57:17;;;;;;;5.03;3.40;;;20.30;47.20;;;;;;5083554;28;20219;-68
2023/04/21 13:00:11;;;;;;;5.45;3.35;;;20.10;47.50;;;;;;5073579;28;20224;-69
2023/04/21 13:03:00;;;;;;;7.30;3.72;;;20.10;47.70;;;;;;5073414;27;20250;-65
2023/04/21 13:05:49;;;;;;;6.63;3.05;;;20.40;47.70;;;;;;5100793;27;20259;-67
2023/04/21 13:08:38;;;;;;;4.72;3.40;;;20.40;48.50;;;;;;5074077;28;20267;-69
2023/04/21 13:11:27;;;;;;;5.47;3.20;;;20.30;48.00;;;;;;5072099;28;20216;-71
2023/04/21 13:14:16;;;;;;;9.13;3.25;;;20.40;47.60;;;;;;5071442;28;20572;-69
2023/04/21 13:17:06;;;;;;;5.53;2.97;;;20.10;48.20;;;;;;5067404;28;20220;-67
2023/04/21 13:19:55;;;;;;;4.60;2.75;;;20.00;48.40;;;;;;5079465;28;20234;-67
2023/04/21 13:22:44;;;;;;;5.30;3.17;;;20.20;48.40;;;;;;5072220;28;20235;-69
2023/04/21 13:25:33;;;;;;;5.70;2.90;;;20.10;47.90;;;;;;5075911;28;20222;-68
2023/04/21 13:28:23;;;;;;;3.70;2.63;;;19.90;49.00;;;;;;5080868;28;20526;-71
2023/04/21 13:31:13;;;;;;;2.88;2.58;;;19.90;48.50;;;;;;5069693;28;20235;-69
2023/04/21 13:34:03;;;;;;;4.47;3.08;;;19.70;48.70;;;;;;5083307;28;20715;-70
2023/04/21 13:36:52;;;;;;;4.20;2.95;;;19.30;48.90;;;;;;5071681;28;20227;-70
2023/04/21 13:39:41;;;;;;;4.10;3.10;;;19.50;49.40;;;;;;5076731;28;20571;-69
2023/04/21 13:42:30;;;;;;;5.07;2.95;;;19.60;49.20;;;;;;5075823;28;20220;-70
2023/04/21 13:45:19;;;;;;;6.85;3.38;;;20.10;49.00;;;;;;5071916;28;20695;-70
2023/04/21 13:48:07;;;;;;;4.18;2.72;;;20.00;49.10;;;;;;5077206;28;20227;-73
2023/04/21 13:50:57;;;;;;;3.42;2.67;;;19.90;48.60;;;;;;5076267;28;20235;-70
2023/04/21 13:53:46;;;;;;;4.65;2.70;;;19.90;48.80;;;;;;5073061;28;20679;-70
2023/04/21 13:56:36;;;;;;;3.00;2.53;;;19.90;48.90;;;;;;5070869;28;20317;-69
2023/04/21 13:59:25;;;;;;;3.78;2.70;;;20.00;48.70;;;;;;5077896;28;20219;-70
2023/04/21 14:02:14;;;;;;;5.40;2.70;;;19.90;48.70;;;;;;5073638;28;20235;-69
2023/04/21 14:05:04;;;;;;;4.22;2.88;;;20.00;48.80;;;;;;5072024;28;20262;-70
2023/04/21 14:07:54;;;;;;;9.70;2.83;;;20.10;49.50;;;;;;5071690;28;20227;-69
2023/04/21 14:10:43;;;;;;;4.68;2.80;;;19.80;49.30;;;;;;5077690;28;20224;-70
2023/04/21 14:13:33;;;;;;;7.05;2.80;;;19.90;49.80;;;;;;5076448;28;20700;-70
2023/04/21 14:16:32;;;;;;;5.82;2.67;;;19.70;49.20;;;;;;5070830;28;20321;-69
2023/04/21 14:19:22;;;;;;;4.32;2.97;;;19.60;49.20;;;;;;5066789;28;20266;-69
2023/04/21 14:22:11;;;;;;;4.65;2.65;;;19.50;49.60;;;;;;5069539;28;20220;-69
2023/04/21 14:25:01;;;;;;;3.70;2.45;;;19.60;49.90;;;;;;5068761;28;20579;-71
2023/04/21 14:27:50;;;;;;;5.13;2.70;;;19.40;48.70;;;;;;5066653;28;20931;-69
2023/04/21 14:30:41;;;;;;;7.32;2.80;;;19.50;49.30;;;;;;5093136;27;20228;-71
2023/04/21 14:33:31;;;;;;;4.13;2.78;;;19.50;49.50;;;;;;5067655;28;20219;-70
2023/04/21 14:36:21;;;;;;;5.72;2.80;;;19.60;49.90;;;;;;5067790;28;20227;-67
2023/04/21 14:39:10;;;;;;;3.60;2.67;;;19.50;49.40;;;;;;5092298;27;20299;-71
2023/04/21 14:42:01;;;;;;;4.88;2.47;;;19.40;49.80;;;;;;5066671;27;20220;-70